Time;durP1;ratioP1;P1;durP2;ratioP2;P2;SDS_P1;SDS_P2;PMS_P1;PMS_P2;Temp;Humidity;BMP_temperature;BMP_pressure;BME280_temperature;BME280_humidity;BME280_pressure;Samples;Min_cycle;Max_cycle;Signal;HPM_P1;HPM_P2
2021/03/09 00:01:57;;;;;;;39.23;18.70;;;0.00;99.90;;;;;;5047990;28;20056;-67
2021/03/09 00:04:23;;;;;;;39.07;18.53;;;0.10;99.90;;;;;;5047120;28;20433;-67
2021/03/09 00:06:51;;;;;;;41.93;18.73;;;0.00;99.90;;;;;;5049123;28;20060;-67
2021/03/09 00:09:17;;;;;;;41.13;19.43;;;0.00;99.90;;;;;;5043950;28;20053;-67
2021/03/09 00:11:44;;;;;;;40.87;18.53;;;0.00;99.90;;;;;;5046084;28;20049;-67
2021/03/09 00:14:10;;;;;;;42.00;19.27;;;0.00;99.90;;;;;;5046854;28;20052;-67
2021/03/09 00:16:37;;;;;;;41.67;17.80;;;0.00;99.90;;;;;;5046719;28;20055;-67
2021/03/09 00:19:03;;;;;;;46.33;19.50;;;0.00;99.90;;;;;;5048600;28;20056;-67
2021/03/09 00:21:30;;;;;;;41.63;19.37;;;0.10;99.90;;;;;;5047487;28;20053;-67
2021/03/09 00:23:57;;;;;;;40.43;18.23;;;0.00;99.90;;;;;;5047391;28;20389;-67
2021/03/09 00:26:24;;;;;;;43.23;19.03;;;0.00;99.90;;;;;;5048881;28;20063;-67
2021/03/09 00:28:50;;;;;;;43.83;20.13;;;0.00;99.90;;;;;;5048794;28;20048;-67
2021/03/09 00:31:17;;;;;;;42.50;18.83;;;0.00;99.90;;;;;;5048598;28;20044;-67
2021/03/09 00:33:43;;;;;;;41.10;19.17;;;0.00;99.90;;;;;;5048414;28;20052;-67
2021/03/09 00:36:10;;;;;;;44.53;19.40;;;-0.10;99.90;;;;;;5050288;28;20056;-67
2021/03/09 00:38:36;;;;;;;41.87;19.37;;;0.00;99.90;;;;;;5049546;28;20424;-67
2021/03/09 00:41:07;;;;;;;41.47;18.40;;;-0.10;99.90;;;;;;5048985;28;20053;-67
2021/03/09 00:43:43;;;;;;;47.23;20.37;;;-0.20;99.90;;;;;;5044619;28;20040;-67
2021/03/09 00:46:09;;;;;;;43.47;19.27;;;-0.20;99.90;;;;;;5048172;28;20060;-67
2021/03/09 00:48:37;;;;;;;40.90;19.50;;;-0.10;99.90;;;;;;5048060;28;20083;-67
2021/03/09 00:51:04;;;;;;;40.53;19.00;;;0.00;99.90;;;;;;5048084;28;20097;-67
2021/03/09 00:53:30;;;;;;;40.27;19.60;;;-0.10;99.90;;;;;;5046551;28;20056;-67
2021/03/09 00:55:57;;;;;;;43.23;18.97;;;-0.10;99.90;;;;;;5047879;28;20059;-67
2021/03/09 00:58:24;;;;;;;43.83;19.33;;;-0.10;99.90;;;;;;5047218;28;20059;-68
2021/03/09 01:00:51;;;;;;;44.77;20.27;;;-0.10;99.90;;;;;;5046931;28;20109;-67
2021/03/09 01:03:17;;;;;;;39.27;17.57;;;-0.10;99.90;;;;;;5046237;28;20048;-67
2021/03/09 01:05:44;;;;;;;43.87;19.17;;;-0.10;99.90;;;;;;5045197;28;20503;-66
2021/03/09 01:08:11;;;;;;;40.80;19.13;;;-0.10;99.90;;;;;;5041139;28;21039;-67
2021/03/09 01:10:38;;;;;;;35.97;18.43;;;-0.10;99.90;;;;;;5036905;28;20098;-67
2021/03/09 01:13:05;;;;;;;41.90;19.27;;;0.00;99.90;;;;;;5035783;28;20060;-67
2021/03/09 01:15:32;;;;;;;41.40;19.03;;;0.00;99.90;;;;;;5038378;28;20048;-67
2021/03/09 01:17:59;;;;;;;42.17;19.40;;;0.00;99.90;;;;;;5039340;28;20751;-67
2021/03/09 01:20:26;;;;;;;46.67;21.30;;;-0.10;99.90;;;;;;5039289;28;20048;-66
2021/03/09 01:22:53;;;;;;;36.90;18.43;;;0.00;99.90;;;;;;5039598;28;20048;-67
2021/03/09 01:25:19;;;;;;;41.97;19.13;;;0.10;99.90;;;;;;5038982;28;20098;-67
2021/03/09 01:27:46;;;;;;;40.50;17.73;;;0.10;99.90;;;;;;5037572;28;20528;-68
2021/03/09 01:30:14;;;;;;;41.13;18.87;;;0.00;99.90;;;;;;5038795;28;20060;-67
2021/03/09 01:32:41;;;;;;;44.47;19.37;;;0.00;99.90;;;;;;5036953;28;20056;-67
2021/03/09 01:35:09;;;;;;;42.97;19.30;;;-0.10;99.90;;;;;;5039207;28;20063;-67
2021/03/09 01:37:35;;;;;;;45.50;20.87;;;-0.10;99.90;;;;;;5039207;28;20052;-67
2021/03/09 01:40:04;;;;;;;48.57;21.20;;;0.00;99.90;;;;;;5039791;28;20452;-67
2021/03/09 01:42:30;;;;;;;39.97;18.17;;;-0.10;99.90;;;;;;5036812;28;20040;-67
2021/03/09 01:44:57;;;;;;;46.40;19.13;;;0.00;99.90;;;;;;5037314;28;20053;-67
2021/03/09 01:47:23;;;;;;;39.20;18.07;;;0.00;99.90;;;;;;5038787;28;20496;-67
2021/03/09 01:49:51;;;;;;;43.13;18.83;;;0.00;99.90;;;;;;5038555;28;20059;-67
2021/03/09 01:52:18;;;;;;;42.93;19.03;;;0.00;99.90;;;;;;5038014;28;20131;-67
2021/03/09 01:54:44;;;;;;;46.53;19.57;;;0.00;99.90;;;;;;5036062;28;20063;-67
2021/03/09 01:57:11;;;;;;;45.60;19.50;;;-0.10;99.90;;;;;;5038649;28;20098;-67
2021/03/09 01:59:38;;;;;;;40.53;18.57;;;-0.10;99.90;;;;;;5038894;28;20048;-67
2021/03/09 02:02:04;;;;;;;40.90;18.67;;;-0.10;99.90;;;;;;5038569;28;20075;-67
2021/03/09 02:04:31;;;;;;;47.50;20.27;;;-0.10;99.90;;;;;;5039006;28;20408;-67
2021/03/09 02:06:59;;;;;;;36.87;17.83;;;-0.20;99.90;;;;;;5039033;28;20394;-67
2021/03/09 02:09:26;;;;;;;40.83;19.43;;;-0.20;99.90;;;;;;5037172;28;20054;-67
2021/03/09 02:12:02;;;;;;;41.10;18.57;;;-0.20;99.90;;;;;;5039274;28;20059;-67
2021/03/09 02:14:36;;;;;;;41.75;18.42;;;-0.10;99.90;;;;;;5037196;28;20074;-67
2021/03/09 02:17:09;;;;;;;45.83;20.13;;;-0.10;99.90;;;;;;5038099;28;20527;-67
2021/03/09 02:20:02;;;;;;;43.70;18.30;;;-0.20;99.90;;;;;;5039716;28;20425;-67
2021/03/09 02:22:52;;;;;;;44.03;19.70;;;-0.10;99.90;;;;;;5038596;28;20052;-67
2021/03/09 02:25:37;;;;;;;43.63;19.47;;;-0.20;99.90;;;;;;5016509;28;20052;-67
2021/03/09 02:28:12;;;;;;;43.73;19.27;;;-0.20;99.90;;;;;;5037879;28;20060;-67
2021/03/09 02:30:41;;;;;;;38.13;17.97;;;-0.20;99.90;;;;;;5039464;28;20090;-67
2021/03/09 02:33:14;;;;;;;40.03;18.83;;;-0.20;99.90;;;;;;5037031;28;20061;-67
2021/03/09 02:35:44;;;;;;;40.17;18.20;;;-0.20;99.90;;;;;;5039575;28;20056;-67
2021/03/09 02:38:13;;;;;;;43.90;19.40;;;-0.10;99.90;;;;;;5038783;28;20056;-67
2021/03/09 02:40:40;;;;;;;42.40;19.43;;;-0.20;99.90;;;;;;5038205;28;20437;-66
2021/03/09 02:43:11;;;;;;;39.00;18.53;;;-0.20;99.90;;;;;;5036582;28;20056;-67
2021/03/09 02:45:38;;;;;;;41.67;19.37;;;-0.10;99.90;;;;;;5037827;28;20052;-67
2021/03/09 02:48:09;;;;;;;50.77;20.70;;;-0.10;99.90;;;;;;5037691;28;20500;-67
2021/03/09 02:50:37;;;;;;;41.70;18.47;;;-0.10;99.90;;;;;;5037639;28;20055;-67
2021/03/09 02:53:10;;;;;;;44.97;19.90;;;-0.10;99.90;;;;;;5034799;28;20052;-67
2021/03/09 02:55:39;;;;;;;43.67;18.43;;;-0.10;99.90;;;;;;5038937;28;20052;-67
2021/03/09 02:58:09;;;;;;;40.37;18.30;;;-0.20;99.90;;;;;;5038014;28;20051;-67
2021/03/09 03:00:37;;;;;;;42.43;19.20;;;-0.10;99.90;;;;;;5038542;28;20045;-67
2021/03/09 03:03:08;;;;;;;42.70;18.97;;;-0.10;99.90;;;;;;5037415;28;20485;-67
2021/03/09 03:05:35;;;;;;;43.80;19.93;;;-0.20;99.90;;;;;;5036959;28;20513;-66
2021/03/09 03:08:05;;;;;;;36.70;17.97;;;-0.20;99.90;;;;;;5037280;28;20052;-68
2021/03/09 03:10:31;;;;;;;34.67;17.40;;;-0.10;99.90;;;;;;5038303;28;20201;-67
2021/03/09 03:12:59;;;;;;;42.03;19.23;;;0.00;99.90;;;;;;5035900;28;20495;-67
2021/03/09 03:15:27;;;;;;;41.00;19.57;;;0.00;99.90;;;;;;5037258;28;20055;-68
2021/03/09 03:17:56;;;;;;;41.07;20.40;;;0.00;99.90;;;;;;5037038;28;20079;-67
2021/03/09 03:20:24;;;;;;;44.03;20.00;;;-0.10;99.90;;;;;;5037073;28;20053;-66
2021/03/09 03:22:52;;;;;;;39.70;19.37;;;-0.10;99.90;;;;;;5035818;28;20096;-67
2021/03/09 03:25:19;;;;;;;44.40;19.23;;;-0.20;99.90;;;;;;5036616;28;20048;-67
2021/03/09 03:27:48;;;;;;;45.33;20.13;;;-0.10;99.90;;;;;;5038226;28;20060;-67
2021/03/09 03:30:16;;;;;;;41.93;19.20;;;-0.10;99.90;;;;;;5040490;28;20048;-67
2021/03/09 03:32:43;;;;;;;49.10;21.83;;;-0.10;99.90;;;;;;5039077;28;20460;-67
2021/03/09 03:35:12;;;;;;;50.57;20.97;;;-0.10;99.90;;;;;;5041185;28;20052;-67
2021/03/09 03:37:40;;;;;;;43.10;19.43;;;-0.10;99.90;;;;;;5041522;28;20054;-67
2021/03/09 03:40:10;;;;;;;46.97;19.20;;;-0.20;99.90;;;;;;5039933;28;20471;-67
2021/03/09 03:42:38;;;;;;;49.37;20.57;;;-0.10;99.90;;;;;;5039416;28;20064;-66
2021/03/09 03:45:06;;;;;;;38.60;17.47;;;0.00;99.90;;;;;;5041106;28;20052;-67
2021/03/09 03:47:32;;;;;;;46.00;20.27;;;0.10;99.90;;;;;;5041909;28;20044;-67
2021/03/09 03:49:59;;;;;;;51.00;21.23;;;0.00;99.90;;;;;;5040720;28;20527;-66
2021/03/09 03:52:35;;;;;;;45.93;19.90;;;0.00;99.90;;;;;;5038066;28;20422;-67
2021/03/09 03:55:16;;;;;;;40.28;18.88;;;0.10;99.90;;;;;;5039741;28;20513;-67
2021/03/09 03:57:48;;;;;;;43.67;19.23;;;0.20;99.90;;;;;;5041193;28;20520;-67
2021/03/09 04:00:17;;;;;;;39.63;18.23;;;0.10;99.90;;;;;;5040096;28;20464;-67
2021/03/09 04:02:46;;;;;;;41.67;19.47;;;0.10;99.90;;;;;;5038602;28;20118;-67
2021/03/09 04:05:14;;;;;;;43.20;19.03;;;0.00;99.90;;;;;;5040689;28;20057;-67
2021/03/09 04:07:42;;;;;;;42.13;18.87;;;0.10;99.90;;;;;;5039396;28;20109;-67
2021/03/09 04:10:10;;;;;;;39.20;17.83;;;0.10;99.90;;;;;;5035892;28;20056;-67
2021/03/09 04:12:37;;;;;;;43.07;19.17;;;0.10;99.90;;;;;;5038340;28;20044;-67
2021/03/09 04:15:06;;;;;;;36.03;17.93;;;0.10;99.90;;;;;;5041673;28;20052;-67
2021/03/09 04:17:34;;;;;;;42.50;19.03;;;-0.10;99.90;;;;;;5040512;28;20048;-67
2021/03/09 04:20:02;;;;;;;40.30;19.50;;;0.00;99.90;;;;;;5040309;28;20056;-67
2021/03/09 04:22:30;;;;;;;41.13;18.30;;;0.00;99.90;;;;;;5037572;28;20040;-67
2021/03/09 04:24:58;;;;;;;38.97;18.90;;;0.00;99.90;;;;;;5040024;28;20056;-67
2021/03/09 04:27:26;;;;;;;37.57;17.93;;;0.00;99.90;;;;;;5040541;28;20102;-67
2021/03/09 04:29:54;;;;;;;40.20;19.10;;;0.00;99.90;;;;;;5039789;28;20048;-67
2021/03/09 04:32:22;;;;;;;42.80;18.47;;;0.00;99.90;;;;;;5039093;28;20060;-66
2021/03/09 04:34:49;;;;;;;42.00;20.10;;;0.00;99.90;;;;;;5040124;28;20060;-67
2021/03/09 04:37:17;;;;;;;40.73;17.53;;;0.00;99.90;;;;;;5039313;28;20629;-67
2021/03/09 04:39:44;;;;;;;40.13;19.10;;;0.10;99.90;;;;;;5039756;28;20414;-67
2021/03/09 04:42:12;;;;;;;40.73;18.83;;;0.10;99.90;;;;;;5039480;28;20052;-67
2021/03/09 04:44:40;;;;;;;43.23;18.50;;;0.00;99.90;;;;;;5038233;28;20044;-67
2021/03/09 04:47:08;;;;;;;41.40;18.80;;;0.00;99.90;;;;;;5038568;28;20057;-67
2021/03/09 04:49:36;;;;;;;42.23;20.07;;;-0.10;99.90;;;;;;5039671;28;20390;-67
2021/03/09 04:52:04;;;;;;;42.83;19.13;;;-0.10;99.90;;;;;;5037304;28;20056;-67
2021/03/09 04:54:34;;;;;;;41.03;20.37;;;0.00;99.90;;;;;;5037866;28;20037;-67
2021/03/09 04:57:00;;;;;;;41.63;18.63;;;0.00;99.90;;;;;;5037152;28;20041;-67
2021/03/09 04:59:27;;;;;;;45.13;19.20;;;0.00;99.90;;;;;;5038101;28;20048;-67
2021/03/09 05:01:55;;;;;;;39.47;17.57;;;0.00;99.90;;;;;;5038116;28;20056;-67
2021/03/09 05:04:21;;;;;;;39.03;18.60;;;-0.10;99.90;;;;;;5036708;28;20048;-67
2021/03/09 05:06:48;;;;;;;44.27;19.87;;;-0.10;99.90;;;;;;5038358;28;20140;-67
2021/03/09 05:09:14;;;;;;;42.63;18.80;;;0.00;99.90;;;;;;5038256;28;20052;-67
2021/03/09 05:11:42;;;;;;;38.23;18.47;;;-0.10;99.90;;;;;;5039875;28;20228;-67
2021/03/09 05:14:09;;;;;;;50.53;21.13;;;0.00;99.90;;;;;;5039817;28;20121;-67
2021/03/09 05:16:36;;;;;;;39.53;17.97;;;0.10;99.90;;;;;;5037957;28;20052;-67
2021/03/09 05:19:03;;;;;;;44.47;19.77;;;-0.10;99.90;;;;;;5036693;28;20067;-67
2021/03/09 05:21:31;;;;;;;40.90;18.40;;;-0.10;99.90;;;;;;5036755;28;20052;-67
2021/03/09 05:23:57;;;;;;;39.43;19.13;;;0.00;99.90;;;;;;5035710;28;20040;-67
2021/03/09 05:26:24;;;;;;;43.87;20.53;;;0.00;99.90;;;;;;5037935;28;20052;-67
2021/03/09 05:28:50;;;;;;;44.23;19.63;;;0.10;99.90;;;;;;5037593;28;20055;-67
2021/03/09 05:31:17;;;;;;;40.20;19.13;;;0.10;99.90;;;;;;5037946;28;20052;-67
2021/03/09 05:33:43;;;;;;;42.70;19.83;;;0.10;99.90;;;;;;5036050;28;20354;-67
2021/03/09 05:36:11;;;;;;;41.47;19.40;;;0.20;99.90;;;;;;5036640;28;20064;-68
2021/03/09 05:38:38;;;;;;;42.30;18.50;;;0.20;99.90;;;;;;5037931;28;20061;-67
2021/03/09 05:41:05;;;;;;;40.20;18.13;;;0.10;99.90;;;;;;5036141;28;20049;-67
2021/03/09 05:43:32;;;;;;;42.63;18.27;;;0.10;99.90;;;;;;5036772;28;20059;-67
2021/03/09 05:45:59;;;;;;;44.40;18.90;;;0.10;99.90;;;;;;5037286;28;20052;-67
2021/03/09 05:48:25;;;;;;;44.03;20.30;;;0.10;99.90;;;;;;5038317;28;20400;-67
2021/03/09 05:50:54;;;;;;;39.53;18.17;;;0.10;99.90;;;;;;5036216;28;20112;-66
2021/03/09 05:53:22;;;;;;;44.80;20.03;;;0.10;99.90;;;;;;5035125;28;20147;-67
2021/03/09 05:55:49;;;;;;;44.27;20.13;;;0.10;99.90;;;;;;5037841;28;20365;-67
2021/03/09 05:58:17;;;;;;;41.80;17.97;;;0.20;99.90;;;;;;5036112;28;20059;-67
2021/03/09 06:00:43;;;;;;;46.20;19.27;;;0.20;99.90;;;;;;5037465;28;20045;-67
2021/03/09 06:03:10;;;;;;;38.37;18.03;;;0.30;99.90;;;;;;5034386;28;20512;-67
2021/03/09 06:05:37;;;;;;;37.47;17.90;;;0.30;99.90;;;;;;5038492;28;20476;-67
2021/03/09 06:08:04;;;;;;;41.37;18.43;;;0.30;99.90;;;;;;5037193;28;20049;-67
2021/03/09 06:10:31;;;;;;;41.77;17.77;;;0.20;99.90;;;;;;5035901;28;20059;-67
2021/03/09 06:12:58;;;;;;;38.70;18.30;;;0.20;99.90;;;;;;5035862;28;20118;-67
2021/03/09 06:15:24;;;;;;;41.53;18.83;;;0.20;99.90;;;;;;5037460;28;21554;-67
2021/03/09 06:17:56;;;;;;;46.83;19.93;;;0.20;99.90;;;;;;5036402;28;20063;-67
2021/03/09 06:20:26;;;;;;;44.10;18.87;;;0.30;99.90;;;;;;5039445;28;20091;-66
2021/03/09 06:22:55;;;;;;;41.43;19.03;;;0.30;99.90;;;;;;5035968;28;20052;-67
2021/03/09 06:25:24;;;;;;;40.40;17.63;;;0.30;99.90;;;;;;5037061;28;20052;-66
2021/03/09 06:27:52;;;;;;;41.33;19.00;;;0.30;99.90;;;;;;5036290;28;20052;-66
2021/03/09 06:30:29;;;;;;;45.20;19.77;;;0.30;99.90;;;;;;5036470;28;20231;-67
2021/03/09 06:32:55;;;;;;;40.50;19.57;;;0.40;99.90;;;;;;5035675;28;20080;-67
2021/03/09 06:35:35;;;;;;;44.70;20.50;;;0.40;99.90;;;;;;5038951;28;20055;-67
2021/03/09 06:38:22;;;;;;;42.37;19.67;;;0.40;99.90;;;;;;5044920;28;20060;-69
2021/03/09 06:41:14;;;;;;;45.83;19.80;;;0.50;99.90;;;;;;5041894;28;20109;-70
2021/03/09 06:43:42;;;;;;;50.93;19.07;;;0.60;99.90;;;;;;5041949;28;20516;-69
2021/03/09 06:46:19;;;;;;;44.90;19.40;;;0.60;99.90;;;;;;5044181;28;20052;-69
2021/03/09 06:48:47;;;;;;;45.65;19.40;;;0.60;99.90;;;;;;5042433;28;20055;-70
2021/03/09 06:51:45;;;;;;;42.60;18.47;;;0.80;99.90;;;;;;5059151;28;20064;-69
2021/03/09 06:54:12;;;;;;;;;;;0.80;99.90;;;;;;5053446;28;20064;-69
2021/03/09 06:56:40;;;;;;;43.67;19.23;;;0.80;99.90;;;;;;5048557;28;20350;-69
2021/03/09 06:59:22;;;;;;;46.43;20.00;;;0.90;99.90;;;;;;5044116;28;20781;-69
2021/03/09 07:02:06;;;;;;;43.80;18.80;;;1.00;99.90;;;;;;5049579;28;20147;-72
2021/03/09 07:04:33;;;;;;;39.13;18.77;;;1.20;99.90;;;;;;5049134;28;20342;-70
2021/03/09 07:07:00;;;;;;;42.43;19.53;;;1.30;99.90;;;;;;5057492;28;20075;-68
2021/03/09 07:09:27;;;;;;;39.13;19.10;;;1.30;99.90;;;;;;5054519;28;20048;-70
2021/03/09 07:11:55;;;;;;;47.13;21.53;;;1.40;99.90;;;;;;5066770;28;20048;-70
2021/03/09 07:14:23;;;;;;;43.00;19.00;;;1.50;99.90;;;;;;5055779;28;20557;-70
2021/03/09 07:16:51;;;;;;;42.13;18.93;;;1.60;99.90;;;;;;5049412;28;20048;-70
2021/03/09 07:19:27;;;;;;;43.83;19.77;;;1.60;99.90;;;;;;5048048;28;20090;-70
2021/03/09 07:21:53;;;;;;;43.87;19.17;;;1.70;99.90;;;;;;5047635;28;20055;-70
2021/03/09 07:24:21;;;;;;;41.47;19.10;;;1.80;99.90;;;;;;5043096;28;20051;-70
2021/03/09 07:26:54;;;;;;;36.93;17.40;;;1.90;99.90;;;;;;5045355;28;20905;-70
2021/03/09 07:29:24;;;;;;;38.47;18.07;;;2.00;99.90;;;;;;5038396;28;20584;-70
2021/03/09 07:31:55;;;;;;;41.37;19.00;;;2.10;99.90;;;;;;5044861;28;20040;-71
2021/03/09 07:34:23;;;;;;;42.37;18.83;;;2.20;99.90;;;;;;5044987;28;20063;-68
2021/03/09 07:36:50;;;;;;;40.87;18.50;;;2.40;99.90;;;;;;5048004;28;20155;-69
2021/03/09 07:39:18;;;;;;;40.20;20.00;;;2.30;99.90;;;;;;5047998;28;20075;-69
2021/03/09 07:41:46;;;;;;;42.23;19.00;;;2.40;99.90;;;;;;5047832;28;20075;-69
2021/03/09 07:44:13;;;;;;;39.10;18.90;;;2.50;99.90;;;;;;5045284;28;20045;-69
2021/03/09 07:46:42;;;;;;;39.67;18.33;;;2.50;99.90;;;;;;5047570;28;20058;-69
2021/03/09 07:49:09;;;;;;;41.60;19.43;;;2.60;99.90;;;;;;5051649;28;20056;-69
2021/03/09 07:52:08;;;;;;;41.50;19.03;;;2.60;99.90;;;;;;5046750;28;20044;-69
2021/03/09 07:54:35;;;;;;;43.30;19.13;;;2.70;99.90;;;;;;5047409;28;20048;-69
2021/03/09 07:57:20;;;;;;;39.53;18.80;;;2.80;99.90;;;;;;5048954;28;20057;-69
2021/03/09 08:00:00;;;;;;;39.43;18.33;;;3.00;99.90;;;;;;5047439;28;20180;-69
2021/03/09 08:02:41;;;;;;;45.60;19.47;;;3.20;99.90;;;;;;5048136;28;20080;-68
2021/03/09 08:05:09;;;;;;;46.00;18.30;;;3.30;99.90;;;;;;5047613;28;20131;-68
2021/03/09 08:07:53;;;;;;;40.07;18.67;;;3.40;99.90;;;;;;5049351;28;20049;-69
2021/03/09 08:10:47;;;;;;;39.00;19.07;;;3.40;99.90;;;;;;5047914;28;20082;-70
2021/03/09 08:13:25;;;;;;;37.93;18.13;;;3.50;99.90;;;;;;5039971;28;20075;-71
2021/03/09 08:15:52;;;;;;;42.90;19.30;;;3.70;99.90;;;;;;5039940;28;20083;-72
2021/03/09 08:18:43;;;;;;;46.23;17.60;;;3.80;99.90;;;;;;5039691;28;20053;-71
2021/03/09 08:21:10;;;;;;;43.90;18.60;;;3.80;99.90;;;;;;5039828;28;20098;-70
2021/03/09 08:23:56;;;;;;;49.77;18.13;;;3.90;99.90;;;;;;5037743;28;20052;-70
2021/03/09 08:26:50;;;;;;;42.33;17.17;;;4.40;99.90;;;;;;5030307;28;20095;-71
2021/03/09 08:29:35;;;;;;;40.23;17.23;;;4.80;99.90;;;;;;5037897;28;20057;-70
2021/03/09 08:32:34;;;;;;;41.07;18.30;;;5.30;99.90;;;;;;5041462;28;20057;-70
2021/03/09 08:35:38;;;;;;;39.33;18.07;;;5.90;99.90;;;;;;4969951;28;20141;-70
2021/03/09 08:38:25;;;;;;;42.43;17.60;;;6.10;99.90;;;;;;5045800;28;20059;-73
2021/03/09 08:41:08;;;;;;;37.58;17.98;;;6.30;99.90;;;;;;5049379;28;20078;-71
2021/03/09 08:43:35;;;;;;;32.05;16.70;;;6.90;99.90;;;;;;5043813;28;20041;-70
2021/03/09 08:46:04;;;;;;;38.75;18.08;;;7.40;99.90;;;;;;5040006;28;20094;-71
2021/03/09 08:48:49;;;;;;;37.30;17.35;;;8.00;99.90;;;;;;5032340;28;20044;-71
2021/03/09 08:51:54;;;;;;;31.35;16.92;;;8.30;99.90;;;;;;5042600;28;20405;-69
2021/03/09 08:54:27;;;;;;;33.60;16.92;;;8.70;99.90;;;;;;5042248;28;20180;-69
2021/03/09 08:56:55;;;;;;;34.13;18.58;;;9.20;99.90;;;;;;5039435;28;20271;-67
2021/03/09 08:59:23;;;;;;;35.00;18.15;;;9.20;99.90;;;;;;5040929;28;20048;-70
2021/03/09 09:01:50;;;;;;;31.70;17.73;;;9.40;99.90;;;;;;5039541;28;20083;-69
2021/03/09 09:04:18;;;;;;;35.30;17.23;;;9.80;99.90;;;;;;5038592;28;20560;-70
2021/03/09 09:06:45;;;;;;;29.48;16.92;;;10.10;99.90;;;;;;5039369;28;20045;-69
2021/03/09 09:09:28;;;;;;;30.00;15.93;;;10.50;99.90;;;;;;5043652;28;20059;-70
2021/03/09 09:11:54;;;;;;;31.25;16.48;;;11.10;99.90;;;;;;5042665;28;20509;-70
2021/03/09 09:14:21;;;;;;;28.85;15.00;;;11.40;99.90;;;;;;5044914;28;20091;-70
2021/03/09 09:16:47;;;;;;;26.73;15.32;;;11.50;99.90;;;;;;5046864;28;20052;-70
2021/03/09 09:19:14;;;;;;;27.15;15.07;;;12.50;99.90;;;;;;5047720;28;20056;-70
2021/03/09 09:21:49;;;;;;;24.83;15.25;;;12.40;99.90;;;;;;5047865;28;20509;-70
2021/03/09 09:24:21;;;;;;;26.85;14.57;;;12.80;99.00;;;;;;5046020;28;20052;-70
2021/03/09 09:26:59;;;;;;;24.27;14.95;;;12.40;98.30;;;;;;5046371;28;20052;-70
2021/03/09 09:29:26;;;;;;;25.52;14.73;;;13.10;97.00;;;;;;5046448;28;20509;-68
2021/03/09 09:32:01;;;;;;;24.92;14.93;;;12.90;95.50;;;;;;5048704;28;20672;-69
2021/03/09 09:34:35;;;;;;;22.08;13.32;;;12.30;96.30;;;;;;5050686;28;20102;-69
2021/03/09 09:37:22;;;;;;;24.73;14.55;;;11.90;95.80;;;;;;5046227;28;20052;-67
2021/03/09 09:39:50;;;;;;;25.08;13.73;;;11.60;96.30;;;;;;5042077;28;20087;-68
2021/03/09 09:42:18;;;;;;;25.00;15.02;;;11.50;96.30;;;;;;5046050;28;20801;-69
2021/03/09 09:44:45;;;;;;;24.45;13.68;;;11.60;97.10;;;;;;5046516;28;20397;-69
2021/03/09 09:47:13;;;;;;;20.73;12.32;;;12.10;96.10;;;;;;5045691;28;20051;-68
2021/03/09 09:49:43;;;;;;;21.38;12.18;;;11.60;95.90;;;;;;5045488;28;20397;-68
2021/03/09 09:52:12;;;;;;;20.88;11.32;;;12.10;95.90;;;;;;5044128;28;20106;-69
2021/03/09 09:54:38;;;;;;;22.70;13.10;;;12.10;93.80;;;;;;5046463;28;20064;-68
2021/03/09 09:57:11;;;;;;;23.25;12.48;;;11.80;94.90;;;;;;5047378;28;20052;-68
2021/03/09 09:59:38;;;;;;;22.10;12.68;;;12.20;93.70;;;;;;5045762;28;20071;-70
2021/03/09 10:02:23;;;;;;;24.17;12.88;;;12.60;93.50;;;;;;5056293;28;20048;-71
2021/03/09 10:04:50;;;;;;;22.25;12.30;;;13.20;92.30;;;;;;5050237;28;20059;-69
2021/03/09 10:07:19;;;;;;;20.95;12.27;;;13.60;92.10;;;;;;5046162;28;20074;-69
2021/03/09 10:10:08;;;;;;;23.80;13.10;;;13.90;91.50;;;;;;5047124;28;20059;-69
2021/03/09 10:12:37;;;;;;;21.08;11.65;;;14.00;87.50;;;;;;5045952;28;20110;-69
2021/03/09 10:15:06;;;;;;;21.23;12.60;;;14.00;87.60;;;;;;5047180;28;20084;-70
2021/03/09 10:17:33;;;;;;;20.60;12.85;;;14.50;84.80;;;;;;5046608;28;20412;-69
2021/03/09 10:20:00;;;;;;;21.65;12.73;;;14.50;83.00;;;;;;5045491;28;20059;-69
2021/03/09 10:22:28;;;;;;;20.45;12.38;;;15.40;80.20;;;;;;5044349;28;20934;-69
2021/03/09 10:25:08;;;;;;;22.42;13.05;;;16.00;78.10;;;;;;5046020;28;20080;-69
2021/03/09 10:27:35;;;;;;;21.27;12.30;;;16.20;74.80;;;;;;5043958;28;20204;-70
2021/03/09 10:30:04;;;;;;;21.63;13.50;;;17.00;72.70;;;;;;5047136;28;20083;-70
2021/03/09 10:32:30;;;;;;;21.58;13.57;;;17.10;70.00;;;;;;5044562;28;20052;-70
2021/03/09 10:34:57;;;;;;;18.45;11.98;;;16.90;66.30;;;;;;5045328;28;20102;-70
2021/03/09 10:37:33;;;;;;;18.67;12.13;;;16.10;65.90;;;;;;5048224;28;20779;-71
2021/03/09 10:40:00;;;;;;;;;;;16.20;64.30;;;;;;5047898;28;20045;-70
2021/03/09 10:42:28;;;;;;;18.50;11.82;;;16.90;65.70;;;;;;5046585;28;20380;-70
2021/03/09 10:44:57;;;;;;;18.70;11.82;;;17.90;63.70;;;;;;5047271;28;20083;-70
2021/03/09 10:47:24;;;;;;;20.80;12.20;;;18.20;62.10;;;;;;5045355;28;20052;-70
2021/03/09 10:49:51;;;;;;;18.10;11.45;;;18.00;61.50;;;;;;5046828;28;20049;-68
2021/03/09 10:52:18;;;;;;;17.52;11.20;;;18.00;57.60;;;;;;5046269;28;20052;-68
2021/03/09 10:54:44;;;;;;;17.90;11.30;;;17.40;58.70;;;;;;5046896;28;20091;-69
2021/03/09 10:57:12;;;;;;;18.60;11.65;;;17.70;58.50;;;;;;5048096;28;21014;-69
2021/03/09 10:59:39;;;;;;;18.40;11.57;;;17.80;58.40;;;;;;5047078;28;20095;-69
2021/03/09 11:02:09;;;;;;;18.77;10.52;;;17.00;56.30;;;;;;5047370;28;20064;-69
2021/03/09 11:04:37;;;;;;;18.15;10.98;;;17.40;55.40;;;;;;5046225;28;20087;-69
2021/03/09 11:07:04;;;;;;;18.38;10.68;;;17.90;56.30;;;;;;5043151;28;20436;-69
2021/03/09 11:09:30;;;;;;;17.05;10.10;;;16.70;54.60;;;;;;5043667;28;20053;-69
2021/03/09 11:11:56;;;;;;;18.27;10.63;;;17.30;55.80;;;;;;5039410;28;20063;-69
2021/03/09 11:14:23;;;;;;;20.80;11.48;;;17.10;56.20;;;;;;5042771;28;20067;-69
2021/03/09 11:16:49;;;;;;;18.65;11.05;;;16.40;56.10;;;;;;5045984;28;20057;-69
2021/03/09 11:19:16;;;;;;;16.45;9.95;;;15.70;57.30;;;;;;5046548;28;20145;-69
2021/03/09 11:21:44;;;;;;;16.63;10.23;;;14.90;57.70;;;;;;5045835;28;20567;-69
2021/03/09 11:24:10;;;;;;;18.35;10.10;;;14.50;58.20;;;;;;5045595;28;20044;-70
2021/03/09 11:26:37;;;;;;;19.92;10.30;;;13.90;58.30;;;;;;5045623;28;20076;-70
2021/03/09 11:29:04;;;;;;;19.88;10.80;;;13.40;60.60;;;;;;5044956;28;20666;-69
2021/03/09 11:31:31;;;;;;;22.27;11.32;;;13.20;62.50;;;;;;5044400;28;20048;-69
2021/03/09 11:33:57;;;;;;;26.60;12.52;;;12.70;64.80;;;;;;5043178;28;20051;-70
2021/03/09 11:36:24;;;;;;;21.40;11.32;;;12.40;64.80;;;;;;5044472;28;21265;-70
2021/03/09 11:38:51;;;;;;;;;;;12.20;65.70;;;;;;5045368;28;20126;-70
2021/03/09 11:41:19;;;;;;;20.70;9.45;;;11.90;64.70;;;;;;5045624;28;19928;-70
2021/03/09 11:43:46;;;;;;;21.17;10.43;;;11.80;66.20;;;;;;5044421;28;20455;-69
2021/03/09 11:46:12;;;;;;;21.10;10.23;;;10.70;64.30;;;;;;5045474;28;20048;-70
2021/03/09 11:48:39;;;;;;;17.55;9.95;;;10.70;66.20;;;;;;5046477;28;20049;-69
2021/03/09 11:51:07;;;;;;;18.52;9.90;;;10.70;64.80;;;;;;5049400;28;20056;-69
2021/03/09 11:53:34;;;;;;;17.85;9.50;;;11.50;65.60;;;;;;5062039;28;20049;-70
2021/03/09 11:56:01;;;;;;;19.20;9.63;;;12.70;64.60;;;;;;5066161;28;20743;-70
2021/03/09 11:58:27;;;;;;;18.33;10.65;;;13.00;62.30;;;;;;5065442;28;20104;-70
2021/03/09 12:00:54;;;;;;;;;;;13.20;61.10;;;;;;5064420;28;20053;-70
2021/03/09 12:03:20;;;;;;;15.45;8.73;;;14.00;60.00;;;;;;5063926;28;19924;-70
2021/03/09 12:05:47;;;;;;;16.70;8.52;;;14.20;57.70;;;;;;5067187;28;20125;-70
2021/03/09 12:08:14;;;;;;;14.00;8.23;;;14.10;57.30;;;;;;5069382;28;20032;-70
2021/03/09 12:10:40;;;;;;;13.75;8.18;;;14.70;56.30;;;;;;5071378;28;20063;-70
2021/03/09 12:13:08;;;;;;;12.50;7.18;;;14.40;55.10;;;;;;5068826;28;20048;-72
2021/03/09 12:15:35;;;;;;;11.82;6.15;;;15.00;54.10;;;;;;5070028;28;20052;-70
2021/03/09 12:18:02;;;;;;;14.43;6.95;;;16.00;52.50;;;;;;5069661;28;20044;-68
2021/03/09 12:20:29;;;;;;;12.80;6.65;;;15.90;51.70;;;;;;5070939;28;20934;-70
2021/03/09 12:22:55;;;;;;;10.93;5.50;;;16.70;52.50;;;;;;5070131;28;20063;-69
2021/03/09 12:25:23;;;;;;;12.98;7.18;;;17.60;49.60;;;;;;5054801;28;20048;-70
2021/03/09 12:27:49;;;;;;;13.30;7.20;;;17.50;49.40;;;;;;5041915;28;20057;-68
2021/03/09 12:30:18;;;;;;;15.95;7.82;;;17.30;49.10;;;;;;5043303;28;20260;-71
2021/03/09 12:32:44;;;;;;;13.07;8.10;;;17.00;50.60;;;;;;5041938;28;20079;-69
2021/03/09 12:35:12;;;;;;;13.82;7.57;;;16.30;51.70;;;;;;5049655;28;20444;-69
2021/03/09 12:37:39;;;;;;;14.73;7.35;;;14.70;51.40;;;;;;5045561;28;20102;-69
2021/03/09 12:40:07;;;;;;;11.70;6.53;;;14.80;53.00;;;;;;5044436;28;20043;-69
2021/03/09 12:42:34;;;;;;;12.15;6.75;;;14.50;50.60;;;;;;5049324;28;20281;-69
2021/03/09 12:45:00;;;;;;;11.10;5.65;;;13.80;52.00;;;;;;5043943;28;20053;-69
2021/03/09 12:47:28;;;;;;;12.38;6.97;;;13.30;51.30;;;;;;5042623;28;20091;-69